createdAt,value
2023-01-13T00:01:41.285Z,10.80
2023-01-13T00:04:12.991Z,10.90
2023-01-13T00:06:43.333Z,10.80
2023-01-13T00:09:13.655Z,10.80
2023-01-13T00:11:44.129Z,10.80
2023-01-13T00:14:17.253Z,10.80
2023-01-13T00:16:47.592Z,10.80
2023-01-13T00:19:17.913Z,10.80
2023-01-13T00:21:48.230Z,10.80
2023-01-13T00:24:18.600Z,10.80
2023-01-13T00:26:48.965Z,10.80
2023-01-13T00:29:22.225Z,10.80
2023-01-13T00:31:53.062Z,10.70
2023-01-13T00:34:23.533Z,10.70
2023-01-13T00:36:53.893Z,10.70
2023-01-13T00:39:24.186Z,10.70
2023-01-13T00:42:06.860Z,10.50
2023-01-13T00:44:39.753Z,10.60
2023-01-13T00:47:10.221Z,10.60
2023-01-13T00:49:40.516Z,10.60
2023-01-13T00:52:11.080Z,10.50
2023-01-13T00:54:41.443Z,10.60
2023-01-13T00:57:11.877Z,10.50
2023-01-13T00:59:44.828Z,10.50
2023-01-13T01:02:15.221Z,10.50
2023-01-13T01:04:45.582Z,10.50
2023-01-13T01:07:18.822Z,10.50
2023-01-13T01:09:49.213Z,10.40
2023-01-13T01:12:19.543Z,10.40
2023-01-13T01:14:52.487Z,10.50
2023-01-13T01:17:22.905Z,10.40
2023-01-13T01:19:53.296Z,10.40
2023-01-13T01:22:23.595Z,10.40
2023-01-13T01:24:53.948Z,10.40
2023-01-13T01:27:24.315Z,10.30
2023-01-13T01:29:57.393Z,10.40
2023-01-13T01:32:27.740Z,10.40
2023-01-13T01:34:58.296Z,10.30
2023-01-13T01:37:28.913Z,10.30
2023-01-13T01:39:59.208Z,10.30
2023-01-13T01:42:42.418Z,10.30
2023-01-13T01:45:22.983Z,10.20
2023-01-13T01:47:59.637Z,10.20
2023-01-13T01:50:33.084Z,10.20
2023-01-13T01:53:09.539Z,10.20
2023-01-13T01:55:41.487Z,10.20
2023-01-13T01:58:14.740Z,10.20
2023-01-13T02:00:47.754Z,10.20
2023-01-13T02:03:19.126Z,10.20
2023-01-13T02:05:49.442Z,10.10
2023-01-13T02:08:21.027Z,10.10
2023-01-13T02:10:57.444Z,10.10
2023-01-13T02:13:27.244Z,10.10
2023-01-13T02:16:06.561Z,10.10
2023-01-13T02:18:49.853Z,10.10
2023-01-13T02:21:45.358Z,10.00
2023-01-13T02:24:54.096Z,10.00
2023-01-13T02:27:55.256Z,10.00
2023-01-13T02:30:47.969Z,10.00
2023-01-13T02:33:30.124Z,9.90
2023-01-13T02:36:05.450Z,10.00
2023-01-13T02:38:40.136Z,9.90
2023-01-13T02:41:29.129Z,9.90
2023-01-13T02:44:14.659Z,10.00
2023-01-13T02:46:56.667Z,10.00
2023-01-13T02:49:36.775Z,10.00
2023-01-13T02:52:13.321Z,10.00
2023-01-13T02:54:49.191Z,10.00
2023-01-13T02:57:21.199Z,10.00
2023-01-13T02:59:53.451Z,10.00
2023-01-13T03:02:28.090Z,10.00
2023-01-13T03:05:00.275Z,10.00
2023-01-13T03:07:53.522Z,10.10
2023-01-13T03:10:34.563Z,10.00
2023-01-13T03:13:17.843Z,10.00
2023-01-13T03:15:58.819Z,10.00
2023-01-13T03:18:40.787Z,10.00
2023-01-13T03:21:21.376Z,10.00
2023-01-13T03:23:55.036Z,10.10
2023-01-13T03:26:33.974Z,10.10
2023-01-13T03:29:11.998Z,10.10
2023-01-13T03:31:48.363Z,10.10
2023-01-13T03:34:31.127Z,10.10
2023-01-13T03:37:06.053Z,10.10
2023-01-13T03:39:39.662Z,10.10
2023-01-13T03:42:13.764Z,10.00
2023-01-13T03:44:46.703Z,10.00
2023-01-13T03:47:23.783Z,10.00
2023-01-13T03:50:03.045Z,10.00
2023-01-13T03:52:39.263Z,10.00
2023-01-13T03:55:14.736Z,10.00
2023-01-13T03:57:52.018Z,10.00
2023-01-13T04:00:27.535Z,10.00
2023-01-13T04:03:02.089Z,10.00
2023-01-13T04:05:39.342Z,9.90
2023-01-13T04:08:18.574Z,9.90
2023-01-13T04:10:56.958Z,9.90
2023-01-13T04:13:33.143Z,9.90
2023-01-13T04:16:03.669Z,9.90
2023-01-13T04:18:34.659Z,9.80
2023-01-13T04:21:08.381Z,9.90
2023-01-13T04:23:38.798Z,9.80
2023-01-13T04:26:09.383Z,9.80
2023-01-13T04:28:40.936Z,9.80
2023-01-13T04:31:11.381Z,9.80
2023-01-13T04:33:41.735Z,9.80
2023-01-13T04:36:15.001Z,9.80
2023-01-13T04:38:45.406Z,9.80
2023-01-13T04:41:15.742Z,9.80
2023-01-13T04:43:46.021Z,9.80
2023-01-13T04:46:16.588Z,9.80
2023-01-13T04:48:47.001Z,9.80
2023-01-13T04:51:19.955Z,9.80
2023-01-13T04:53:52.393Z,9.80
2023-01-13T04:56:22.774Z,9.90
2023-01-13T04:58:53.100Z,9.80
2023-01-13T05:01:23.517Z,9.80
2023-01-13T05:03:53.827Z,9.90
2023-01-13T05:06:26.773Z,9.80
2023-01-13T05:08:57.453Z,9.80
2023-01-13T05:11:39.947Z,9.70
2023-01-13T05:14:22.920Z,9.70
2023-01-13T05:17:04.194Z,9.70
2023-01-13T05:19:36.771Z,9.70
2023-01-13T05:22:23.477Z,9.70
2023-01-13T05:25:06.612Z,9.60
2023-01-13T05:27:38.741Z,9.60
2023-01-13T05:30:13.650Z,9.60
2023-01-13T05:32:44.042Z,9.60
2023-01-13T05:35:16.155Z,9.50
2023-01-13T05:37:49.690Z,9.50
2023-01-13T05:40:34.567Z,9.50
2023-01-13T05:43:18.742Z,9.50
2023-01-13T05:45:49.445Z,9.50
2023-01-13T05:48:22.184Z,9.40
2023-01-13T05:50:54.087Z,9.40
2023-01-13T05:53:30.656Z,9.50
2023-01-13T05:56:01.416Z,9.40
2023-01-13T05:58:31.698Z,9.40
2023-01-13T06:01:06.843Z,9.40
2023-01-13T06:03:39.639Z,9.40
2023-01-13T06:06:10.379Z,9.30
2023-01-13T06:08:45.268Z,9.40
2023-01-13T06:11:15.647Z,9.30
2023-01-13T06:13:54.857Z,9.30
2023-01-13T06:16:25.370Z,9.30
2023-01-13T06:18:55.722Z,9.30
2023-01-13T06:21:26.060Z,9.30
2023-01-13T06:23:59.400Z,9.30
2023-01-13T06:26:32.977Z,9.30
2023-01-13T06:29:03.257Z,9.30
2023-01-13T06:31:34.261Z,9.30
2023-01-13T06:34:08.750Z,9.30
2023-01-13T06:36:43.594Z,9.30
2023-01-13T06:39:19.043Z,9.30
2023-01-13T06:42:03.863Z,9.30
2023-01-13T06:44:34.185Z,9.30
2023-01-13T06:47:04.728Z,9.30
2023-01-13T06:49:35.193Z,9.30
2023-01-13T06:52:05.535Z,9.30
2023-01-13T06:54:38.448Z,9.30
2023-01-13T06:57:08.802Z,9.20
2023-01-13T06:59:39.294Z,9.20
2023-01-13T07:02:10.260Z,9.20
2023-01-13T07:04:40.815Z,9.20
2023-01-13T07:07:12.561Z,9.20
2023-01-13T07:09:45.516Z,9.20
2023-01-13T07:12:15.904Z,9.20
2023-01-13T07:14:58.573Z,9.20
2023-01-13T07:17:28.872Z,9.20
2023-01-13T07:19:59.118Z,9.20
2023-01-13T07:22:29.789Z,9.10
2023-01-13T07:25:02.722Z,9.20
2023-01-13T07:27:33.079Z,9.20
2023-01-13T07:30:03.599Z,9.20
2023-01-13T07:32:35.769Z,9.10
2023-01-13T07:35:07.698Z,9.10
2023-01-13T07:37:40.562Z,9.10
2023-01-13T07:40:14.900Z,9.10
2023-01-13T07:43:09.316Z,9.10
2023-01-13T07:45:39.656Z,9.10
2023-01-13T07:48:10.055Z,9.00
2023-01-13T07:50:42.141Z,9.10
2023-01-13T07:53:14.319Z,9.00
2023-01-13T07:55:48.077Z,9.00
2023-01-13T07:58:18.444Z,9.10
2023-01-13T08:00:48.847Z,9.00
2023-01-13T08:03:19.190Z,9.00
2023-01-13T08:05:49.901Z,9.00
2023-01-13T08:08:20.638Z,8.90
2023-01-13T08:10:53.683Z,9.00
2023-01-13T08:13:24.272Z,9.00
2023-01-13T08:15:56.847Z,9.10
2023-01-13T08:18:27.255Z,9.00
2023-01-13T08:20:57.819Z,9.00
2023-01-13T08:23:28.243Z,9.00
2023-01-13T08:26:03.222Z,9.00
2023-01-13T08:28:34.253Z,9.00
2023-01-13T08:31:05.968Z,9.00
2023-01-13T08:33:36.756Z,9.00
2023-01-13T08:36:07.970Z,9.00
2023-01-13T08:38:39.235Z,9.00
2023-01-13T08:41:37.319Z,9.00
2023-01-13T08:44:09.954Z,9.10
2023-01-13T08:46:40.787Z,9.10
2023-01-13T08:49:11.156Z,9.10
2023-01-13T08:51:41.546Z,9.10
2023-01-13T08:54:12.280Z,9.10
2023-01-13T08:56:45.715Z,9.10
2023-01-13T08:59:17.032Z,9.10
2023-01-13T09:01:48.474Z,9.10
2023-01-13T09:04:22.097Z,9.10
2023-01-13T09:06:53.349Z,9.20
2023-01-13T09:09:25.621Z,9.20
2023-01-13T09:12:11.014Z,9.20
2023-01-13T09:14:42.539Z,9.20
2023-01-13T09:17:12.950Z,9.20
2023-01-13T09:19:43.711Z,9.20
2023-01-13T09:22:18.486Z,9.20
2023-01-13T09:24:49.183Z,9.20
2023-01-13T09:27:22.997Z,9.20
2023-01-13T09:29:53.499Z,9.30
2023-01-13T09:32:23.861Z,9.30
2023-01-13T09:35:00.943Z,9.30
2023-01-13T09:37:34.357Z,9.30
2023-01-13T09:40:05.079Z,9.30
2023-01-13T09:42:57.098Z,9.40
2023-01-13T09:45:32.157Z,9.40
2023-01-13T09:48:09.984Z,9.40
2023-01-13T09:50:51.615Z,9.40
2023-01-13T09:53:25.634Z,9.40
2023-01-13T09:55:55.987Z,9.50
2023-01-13T09:58:29.833Z,9.50
2023-01-13T10:01:11.080Z,9.50
2023-01-13T10:03:41.460Z,9.50
2023-01-13T10:06:18.290Z,9.60
2023-01-13T10:08:50.754Z,9.60
2023-01-13T10:11:34.813Z,9.70
2023-01-13T10:14:16.552Z,9.70
2023-01-13T10:16:52.494Z,9.70
2023-01-13T10:19:27.756Z,9.70
2023-01-13T10:22:19.719Z,9.70
2023-01-13T10:25:11.958Z,9.70
2023-01-13T10:27:49.591Z,9.70
2023-01-13T10:30:31.270Z,9.60
2023-01-13T10:33:03.798Z,9.80
2023-01-13T10:35:56.534Z,9.80
2023-01-13T10:38:29.251Z,9.80
2023-01-13T10:41:01.040Z,9.80
2023-01-13T10:43:32.414Z,9.80
2023-01-13T10:46:08.755Z,9.90
2023-01-13T10:48:41.938Z,9.90
2023-01-13T10:51:31.065Z,9.90
2023-01-13T10:54:04.069Z,9.80
2023-01-13T10:56:36.971Z,9.90
2023-01-13T10:59:18.680Z,9.80
2023-01-13T11:02:13.127Z,9.80
2023-01-13T11:05:04.780Z,9.80
2023-01-13T11:07:37.583Z,9.70
2023-01-13T11:10:21.954Z,9.70
2023-01-13T11:13:01.785Z,9.70
2023-01-13T11:15:42.624Z,9.60
2023-01-13T11:18:22.617Z,9.50
2023-01-13T11:20:55.924Z,9.50
2023-01-13T11:23:31.970Z,9.50
2023-01-13T11:26:07.572Z,9.50
2023-01-13T11:28:54.859Z,9.50
2023-01-13T11:31:30.853Z,9.50
2023-01-13T11:34:11.489Z,9.50
2023-01-13T11:36:46.224Z,9.40
2023-01-13T11:39:24.173Z,9.50
2023-01-13T11:42:12.586Z,9.50
2023-01-13T11:44:48.242Z,9.50
2023-01-13T11:47:21.903Z,9.50
2023-01-13T11:49:55.112Z,9.50
2023-01-13T11:52:31.049Z,9.50
2023-01-13T11:55:22.760Z,9.60
2023-01-13T11:58:15.094Z,9.60
2023-01-13T12:01:17.663Z,9.60
2023-01-13T12:03:54.371Z,9.60
2023-01-13T12:06:36.927Z,9.70
2023-01-13T12:09:22.454Z,9.70
2023-01-13T12:12:18.949Z,9.70
2023-01-13T12:15:20.374Z,9.70
2023-01-13T12:18:00.518Z,9.70
2023-01-13T12:20:37.619Z,9.80
2023-01-13T12:23:18.951Z,9.70
2023-01-13T12:25:55.622Z,9.70
2023-01-13T12:28:29.834Z,9.70
2023-01-13T12:31:04.421Z,9.80
2023-01-13T12:33:57.189Z,9.80
2023-01-13T12:36:32.491Z,9.80
2023-01-13T12:39:12.639Z,9.90
2023-01-13T12:42:00.149Z,9.80
2023-01-13T12:44:30.588Z,9.90
2023-01-13T12:47:01.896Z,9.90
2023-01-13T12:49:34.528Z,9.90
2023-01-13T12:52:22.505Z,9.90
2023-01-13T12:55:20.521Z,9.90
2023-01-13T12:58:18.150Z,9.80
2023-01-13T13:01:04.008Z,9.80
2023-01-13T13:03:38.658Z,9.80
2023-01-13T13:06:17.651Z,9.90
2023-01-13T13:09:04.445Z,9.90
2023-01-13T13:11:56.256Z,9.80
2023-01-13T13:15:04.232Z,9.80
2023-01-13T13:17:47.413Z,9.80
2023-01-13T13:20:50.676Z,9.80
2023-01-13T13:23:44.390Z,9.80
2023-01-13T13:26:33.775Z,9.80
2023-01-13T13:29:36.960Z,9.80
2023-01-13T13:32:37.313Z,9.80
2023-01-13T13:35:23.998Z,9.80
2023-01-13T13:38:37.852Z,9.80
2023-01-13T13:41:26.336Z,9.80
2023-01-13T13:44:08.913Z,9.80
2023-01-13T13:46:50.980Z,9.80
2023-01-13T13:49:23.333Z,9.90
2023-01-13T13:52:03.605Z,9.90
2023-01-13T13:54:35.544Z,9.90
2023-01-13T13:57:06.101Z,9.90
2023-01-13T13:59:36.540Z,9.90
2023-01-13T14:02:21.684Z,9.90
2023-01-13T14:04:52.194Z,9.90
2023-01-13T14:07:24.518Z,9.90
2023-01-13T14:09:57.519Z,10.00
2023-01-13T14:12:30.522Z,10.00
2023-01-13T14:15:01.458Z,10.00
2023-01-13T14:17:34.711Z,10.00
2023-01-13T14:20:09.721Z,10.00
2023-01-13T14:22:40.241Z,10.00
2023-01-13T14:25:31.883Z,10.00
2023-01-13T14:28:20.157Z,10.00
2023-01-13T14:30:51.382Z,10.00
2023-01-13T14:33:27.541Z,10.00
2023-01-13T14:36:18.959Z,10.00
2023-01-13T14:38:50.886Z,10.00
2023-01-13T14:41:25.513Z,10.10
2023-01-13T14:43:59.458Z,10.10
2023-01-13T14:46:40.529Z,10.10
2023-01-13T14:49:26.320Z,10.10
2023-01-13T14:52:05.424Z,10.10
2023-01-13T14:54:51.058Z,10.10
2023-01-13T14:57:32.495Z,10.10
2023-01-13T15:00:21.466Z,10.10
2023-01-13T15:03:02.478Z,10.00
2023-01-13T15:05:47.832Z,10.00
2023-01-13T15:08:44.976Z,10.10
2023-01-13T15:11:25.992Z,10.10
2023-01-13T15:14:02.593Z,10.10
2023-01-13T15:16:35.010Z,10.00
2023-01-13T15:19:05.843Z,10.00
2023-01-13T15:21:38.828Z,10.00
2023-01-13T15:24:10.055Z,10.00
2023-01-13T15:26:40.488Z,10.10
2023-01-13T15:29:16.346Z,10.00
2023-01-13T15:31:46.731Z,10.00
2023-01-13T15:34:17.095Z,10.00
2023-01-13T15:36:50.150Z,10.00
2023-01-13T15:39:20.663Z,10.00
2023-01-13T15:42:03.377Z,10.00
2023-01-13T15:44:54.680Z,10.00
2023-01-13T15:47:25.774Z,10.00
2023-01-13T15:49:57.056Z,10.00
2023-01-13T15:52:30.929Z,10.00
2023-01-13T15:55:01.358Z,10.00
2023-01-13T15:57:34.689Z,9.90
2023-01-13T16:00:10.817Z,9.90
2023-01-13T16:02:41.189Z,9.90
2023-01-13T16:05:11.865Z,9.90
2023-01-13T16:07:45.084Z,9.90
2023-01-13T16:10:20.535Z,9.80
2023-01-13T16:12:51.114Z,9.80
2023-01-13T16:15:22.519Z,9.80
2023-01-13T16:17:59.004Z,9.80
2023-01-13T16:20:30.190Z,9.80
2023-01-13T16:23:03.238Z,9.80
2023-01-13T16:25:33.845Z,9.80
2023-01-13T16:28:04.262Z,9.80
2023-01-13T16:30:37.007Z,9.70
2023-01-13T16:33:07.684Z,9.70
2023-01-13T16:35:43.852Z,9.70
2023-01-13T16:38:31.355Z,9.60
2023-01-13T16:41:01.868Z,9.70
2023-01-13T16:43:32.383Z,9.70
2023-01-13T16:46:03.027Z,9.70
2023-01-13T16:48:33.509Z,9.80
2023-01-13T16:51:05.254Z,9.80
2023-01-13T16:53:38.250Z,9.80
2023-01-13T16:56:20.929Z,9.80
2023-01-13T16:58:51.842Z,9.80
2023-01-13T17:01:25.056Z,9.80
2023-01-13T17:03:56.079Z,9.80
2023-01-13T17:06:30.251Z,9.80
2023-01-13T17:09:08.494Z,9.80
2023-01-13T17:11:38.849Z,9.80
2023-01-13T17:14:18.155Z,9.70
2023-01-13T17:16:49.128Z,9.70
2023-01-13T17:19:20.045Z,9.70
2023-01-13T17:21:51.626Z,9.70
2023-01-13T17:24:26.029Z,9.70
2023-01-13T17:26:57.592Z,9.70
2023-01-13T17:29:28.117Z,9.60
2023-01-13T17:31:58.902Z,9.70
2023-01-13T17:34:29.588Z,9.60
2023-01-13T17:36:59.946Z,9.60
2023-01-13T17:39:33.327Z,9.60
2023-01-13T17:42:04.064Z,9.60
2023-01-13T17:44:35.013Z,9.60
2023-01-13T17:47:05.976Z,9.60
2023-01-13T17:49:37.274Z,9.60
2023-01-13T17:52:08.049Z,9.60
2023-01-13T17:54:43.251Z,9.70
2023-01-13T17:57:13.677Z,9.70
2023-01-13T17:59:44.453Z,9.70
2023-01-13T18:02:15.635Z,9.70
2023-01-13T18:04:46.076Z,9.70
2023-01-13T18:07:16.465Z,9.70
2023-01-13T18:09:49.455Z,9.70
2023-01-13T18:12:19.819Z,9.70
2023-01-13T18:14:50.201Z,9.70
2023-01-13T18:17:20.492Z,9.60
2023-01-13T18:20:03.198Z,9.60
2023-01-13T18:22:45.860Z,9.70
2023-01-13T18:25:31.234Z,9.70
2023-01-13T18:28:02.430Z,9.60
2023-01-13T18:30:32.879Z,9.60
2023-01-13T18:33:03.241Z,9.60
2023-01-13T18:35:33.607Z,9.60
2023-01-13T18:38:03.894Z,9.60
2023-01-13T18:40:36.897Z,9.60
2023-01-13T18:43:04.642Z,9.70
2023-01-13T18:45:35.566Z,9.60
2023-01-13T18:48:08.207Z,9.60
2023-01-13T18:50:39.134Z,9.70
2023-01-13T18:53:10.645Z,9.60
2023-01-13T18:55:44.712Z,9.60
2023-01-13T18:58:16.196Z,9.60
2023-01-13T19:00:47.844Z,9.60
2023-01-13T19:03:29.911Z,9.70
2023-01-13T19:06:06.611Z,9.60
2023-01-13T19:08:38.122Z,9.70
2023-01-13T19:11:11.475Z,9.60
2023-01-13T19:13:41.936Z,9.60
2023-01-13T19:16:12.334Z,9.60
2023-01-13T19:18:42.764Z,9.60
2023-01-13T19:21:13.300Z,9.60
2023-01-13T19:23:43.616Z,9.60
2023-01-13T19:26:17.206Z,9.60
2023-01-13T19:28:48.715Z,9.60
2023-01-13T19:31:20.985Z,9.50
2023-01-13T19:33:51.397Z,9.60
2023-01-13T19:36:21.724Z,9.60
2023-01-13T19:38:52.187Z,9.60
2023-01-13T19:41:37.629Z,9.60
2023-01-13T19:44:20.563Z,9.50
2023-01-13T19:46:51.021Z,9.50
2023-01-13T19:49:21.396Z,9.50
2023-01-13T19:51:51.751Z,9.50
2023-01-13T19:54:22.116Z,9.50
2023-01-13T19:56:55.386Z,9.40
2023-01-13T19:59:29.333Z,9.40
2023-01-13T20:02:00.682Z,9.30
2023-01-13T20:04:37.713Z,9.40
2023-01-13T20:07:08.713Z,9.40
2023-01-13T20:09:39.284Z,9.40
2023-01-13T20:12:13.617Z,9.40
2023-01-13T20:14:44.300Z,9.40
2023-01-13T20:17:15.435Z,9.30
2023-01-13T20:19:46.129Z,9.30
2023-01-13T20:22:17.057Z,9.30
2023-01-13T20:24:48.640Z,9.30
2023-01-13T20:27:21.672Z,9.30
2023-01-13T20:29:52.131Z,9.30
2023-01-13T20:32:22.569Z,9.30
2023-01-13T20:34:52.931Z,9.30
2023-01-13T20:37:23.738Z,9.30
2023-01-13T20:39:55.559Z,9.30
2023-01-13T20:42:29.770Z,9.30
2023-01-13T20:45:01.451Z,9.20
2023-01-13T20:47:33.499Z,9.30
2023-01-13T20:50:04.013Z,9.20
2023-01-13T20:52:34.346Z,9.30
2023-01-13T20:55:04.677Z,9.30
2023-01-13T20:57:37.914Z,9.10
2023-01-13T21:00:10.415Z,9.20
2023-01-13T21:02:44.113Z,9.30
2023-01-13T21:05:14.490Z,9.20
2023-01-13T21:07:44.824Z,9.30
2023-01-13T21:10:15.338Z,9.20
2023-01-13T21:13:00.633Z,9.10
2023-01-13T21:15:31.136Z,9.20
2023-01-13T21:18:13.803Z,9.20
2023-01-13T21:20:44.343Z,9.20
2023-01-13T21:23:14.720Z,9.20
2023-01-13T21:25:45.114Z,9.20
2023-01-13T21:28:18.332Z,9.20
2023-01-13T21:30:50.191Z,9.10
2023-01-13T21:33:21.801Z,9.20
2023-01-13T21:35:52.194Z,9.20
2023-01-13T21:38:22.507Z,9.10
2023-01-13T21:40:59.912Z,9.20
2023-01-13T21:43:45.239Z,9.10
2023-01-13T21:46:31.660Z,9.10
2023-01-13T21:49:02.516Z,9.10
2023-01-13T21:51:33.579Z,9.10
2023-01-13T21:54:03.921Z,9.10
2023-01-13T21:56:34.351Z,9.10
2023-01-13T21:59:07.283Z,9.10
2023-01-13T22:01:38.781Z,9.00
2023-01-13T22:04:29.366Z,9.10
2023-01-13T22:07:04.693Z,9.10
2023-01-13T22:09:35.048Z,9.00
2023-01-13T22:12:05.834Z,9.10
2023-01-13T22:14:39.141Z,9.10
2023-01-13T22:17:10.270Z,9.10
2023-01-13T22:19:42.596Z,9.00
2023-01-13T22:22:14.758Z,9.00
2023-01-13T22:24:47.454Z,9.00
2023-01-13T22:27:20.087Z,9.00
2023-01-13T22:29:54.809Z,9.00
2023-01-13T22:32:26.343Z,9.00
2023-01-13T22:34:58.080Z,9.00
2023-01-13T22:37:29.174Z,8.90
2023-01-13T22:40:00.272Z,9.00
2023-01-13T22:42:31.324Z,9.00
2023-01-13T22:45:05.476Z,8.90
2023-01-13T22:47:37.702Z,8.90
2023-01-13T22:50:10.786Z,9.00
2023-01-13T22:52:42.710Z,8.90
2023-01-13T22:55:13.887Z,8.90
2023-01-13T22:57:48.113Z,8.90
2023-01-13T23:00:25.192Z,8.90
2023-01-13T23:02:56.252Z,8.90
2023-01-13T23:05:29.653Z,8.90
2023-01-13T23:08:00.889Z,8.90
2023-01-13T23:10:32.064Z,8.90
2023-01-13T23:13:03.334Z,8.80
2023-01-13T23:15:38.119Z,8.90
2023-01-13T23:18:09.937Z,8.80
2023-01-13T23:20:40.897Z,8.90
2023-01-13T23:23:11.971Z,8.80
2023-01-13T23:25:42.995Z,8.80
2023-01-13T23:28:13.885Z,8.90
2023-01-13T23:30:47.742Z,8.80
2023-01-13T23:33:18.878Z,8.80
2023-01-13T23:35:59.427Z,8.80
2023-01-13T23:38:31.608Z,8.80
2023-01-13T23:41:03.974Z,8.80
2023-01-13T23:43:35.033Z,8.80
2023-01-13T23:46:11.387Z,8.80
2023-01-13T23:48:43.315Z,8.80
2023-01-13T23:51:16.192Z,8.70
2023-01-13T23:53:49.280Z,8.80
2023-01-13T23:56:23.272Z,8.80
2023-01-13T23:58:55.138Z,8.70
